METAR Data
IDs: Format: Raw Decoded Include TAF

Data at: 0813 UTC 07 Dec 2021

KOBE 070755Z AUTO 00000KT 10SM CLR 14/14 A3006 RMK AO2 LTG DSNT E
KOBE 070735Z AUTO 00000KT 2SM BR CLR 14/14 A3006 RMK AO2 LTG DSNT E VIS 3/4V5
KOBE 070715Z AUTO 00000KT 6SM BR CLR 14/14 A3006 RMK AO2
KOBE 070655Z AUTO 00000KT 7SM CLR 15/15 A3007 RMK AO2 LTG DSNT E
KOBE 070635Z AUTO 00000KT 7SM CLR 15/15 A3007 RMK AO2
KOBE 070615Z AUTO 00000KT 9SM CLR 15/15 A3007 RMK AO2 LTG DSNT E
KOBE 070555Z AUTO 00000KT 10SM CLR 16/16 A3007 RMK AO2
KOBE 070535Z AUTO 00000KT 10SM CLR 16/16 A3007 RMK AO2 LTG DSNT E
KOBE 070515Z AUTO 00000KT 10SM CLR 16/16 A3008 RMK AO2
KOBE 070455Z AUTO 00000KT 10SM CLR 16/16 A3009 RMK AO2 LTG DSNT E
KOBE 070435Z AUTO 00000KT 10SM CLR 16/16 A3010 RMK AO2 LTG DSNT E
KOBE 070415Z AUTO 00000KT 7SM CLR 17/17 A3010 RMK AO2
KOBE 070355Z AUTO 00000KT 3SM BR CLR 17/17 A3010 RMK AO2
KOBE 070335Z AUTO 00000KT 1 1/2SM BR CLR 17/17 A3010 RMK AO2 VIS 1/2V5
KOBE 070315Z AUTO 00000KT 4SM BR CLR 17/17 A3010 RMK AO2 LTG DSNT NE
KOBE 070255Z AUTO 00000KT 5SM BR FEW043 18/18 A3010 RMK AO2
KOBE 070235Z AUTO 00000KT 5SM BR SCT043 19/19 A3011 RMK AO2
KOBE 070215Z AUTO 00000KT 8SM CLR 19/19 A3011 RMK AO2
KOBE 070155Z AUTO 00000KT 7SM CLR 19/19 A3010 RMK AO2
KOBE 070135Z AUTO 00000KT 5SM BR CLR 19/19 A3009 RMK AO2
KOBE 070115Z AUTO 00000KT 6SM BR CLR 20/20 A3008 RMK AO2
KOBE 070055Z AUTO 00000KT 8SM CLR 19/19 A3008 RMK AO2 LTG DSNT E
KOBE 070035Z AUTO 00000KT 9SM CLR 20/20 A3007 RMK AO2 LTG DSNT E
KOBE 070015Z AUTO 00000KT 10SM CLR 21/21 A3007 RMK AO2 LTG DSNT E
KOBE 062355Z AUTO 00000KT 10SM CLR 21/21 A3006 RMK AO2
KOBE 062335Z AUTO 33003KT 10SM CLR 22/21 A3005 RMK AO2 LTG DSNT E
KOBE 062315Z AUTO 00000KT 10SM CLR 22/21 A3005 RMK AO2
KOBE 062255Z AUTO 00000KT 10SM SCT046 23/22 A3005 RMK AO2
KOBE 062235Z AUTO 00000KT 10SM FEW047 24/22 A3005 RMK AO2 LTG DSNT E
KOBE 062215Z AUTO 14003KT 10SM FEW032 SCT039 25/22 A3004 RMK AO2 LTG DSNT NE
KOBE 062155Z AUTO 00000KT 10SM BKN034 BKN040 BKN060 25/23 A3004 RMK AO2 LTG DSNT SE
KOBE 062135Z AUTO 00000KT 10SM FEW031 SCT039 BKN055 27/22 A3003 RMK AO2
KOBE 062115Z AUTO 00000KT 10SM SCT033 SCT040 BKN055 26/22 A3003 RMK AO2
KOBE 062055Z AUTO 00000KT 10SM FEW029 FEW036 SCT060 27/22 A3003 RMK AO2 LTG DSNT SE
KOBE 062035Z AUTO 00000KT 10SM FEW030 27/22 A3003 RMK AO2 LTG DSNT SE
KOBE 062015Z AUTO 00000KT 10SM FEW025 SCT044 27/22 A3004 RMK AO2 LTG DSNT SE
KOBE 061955Z AUTO 33003KT 10SM BKN026 BKN033 OVC042 27/22 A3004 RMK AO2
KOBE 061935Z AUTO VRB03KT 9SM BKN029 BKN037 27/22 A3005 RMK AO2
KOBE 061915Z AUTO 00000KT 10SM SCT030 BKN037 BKN060 27/22 A3005 RMK AO2
KOBE 061855Z AUTO 00000KT 10SM SCT035 OVC060 26/22 A3006 RMK AO2
KOBE 061835Z AUTO 00000KT 10SM BKN032 BKN038 OVC060 26/22 A3007 RMK AO2
KOBE 061815Z AUTO 00000KT 10SM BKN031 BKN036 OVC060 26/22 A3007 RMK AO2
KOBE 061755Z AUTO 00000KT 10SM BKN033 OVC065 25/22 A3008 RMK AO2
KOBE 061735Z AUTO 00000KT 10SM FEW014 BKN032 BKN038 25/22 A3009 RMK AO2
KOBE 061715Z AUTO 00000KT 10SM FEW014 BKN039 OVC046 25/23 A3010 RMK AO2
KOBE 061655Z AUTO 15004KT 10SM OVC040 25/22 A3011 RMK AO2
KOBE 061635Z AUTO 12005KT 10SM FEW023 OVC041 25/22 A3012 RMK AO2
KOBE 061615Z AUTO 00000KT 10SM SCT023 OVC041 24/22 A3013 RMK AO2
KOBE 061555Z AUTO 00000KT 10SM BKN022 OVC029 24/22 A3014 RMK AO2
KOBE 061535Z AUTO 00000KT 10SM BKN023 BKN029 OVC050 23/22 A3015 RMK AO2
KOBE 061515Z AUTO 03003KT 10SM BKN028 OVC050 23/22 A3015 RMK AO2 LTG DSNT NW
KOBE 061455Z AUTO 00000KT 10SM BKN028 OVC055 22/22 A3015 RMK AO2
KOBE 061435Z AUTO 00000KT 10SM BKN028 BKN055 21/21 A3015 RMK AO2
KOBE 061415Z AUTO 00000KT 9SM FEW029 BKN065 21/21 A3015 RMK AO2
KOBE 061355Z AUTO 00000KT 5SM BR OVC065 20/20 A3014 RMK AO2
KOBE 061335Z AUTO 00000KT 3SM BR SCT001 OVC065 18/18 A3014 RMK AO2
KOBE 061315Z AUTO 00000KT 1/4SM FG OVC001 17/17 A3014 RMK AO2
KOBE 061255Z AUTO 00000KT 1/4SM FG OVC001 16/16 A3013 RMK AO2
KOBE 061235Z AUTO 00000KT M1/4SM FG OVC001 16/16 A3012 RMK AO2
KOBE 061215Z AUTO 00000KT M1/4SM FG OVC001 15/15 A3012 RMK AO2
KOBE 061155Z AUTO 00000KT 1/4SM FG OVC001 15/15 A3011 RMK AO2
KOBE 061135Z AUTO 00000KT 1/2SM BR BKN001 OVC033 15/15 A3011 RMK AO2
KOBE 061115Z AUTO 03003KT 1/4SM FG BKN001 OVC034 15/15 A3011 RMK AO2
KOBE 061055Z AUTO 00000KT 1/2SM BR OVC001 15/15 A3011 RMK AO2
KOBE 061035Z AUTO 00000KT 1 1/4SM BR OVC001 15/15 A3011 RMK AO2
KOBE 061015Z AUTO 00000KT 3/4SM BR OVC001 15/15 A3010 RMK AO2
KOBE 060955Z AUTO 00000KT 1/2SM BR OVC001 15/15 A3010 RMK AO2
KOBE 060935Z AUTO 00000KT 1/2SM BR OVC001 15/15 A3010 RMK AO2
KOBE 060915Z AUTO 00000KT 1/2SM BR OVC001 15/15 A3009 RMK AO2
KOBE 060855Z AUTO 00000KT 1/2SM FG OVC001 15/15 A3010 RMK AO2
KOBE 060835Z AUTO 00000KT 1/2SM FG BKN001 16/16 A3010 RMK AO2
KOBE 060815Z AUTO 00000KT 1/2SM FG VV005 16/16 A3011 RMK AO2
KOBE 060755Z AUTO 00000KT 1/4SM FG VV002 16/16 A3011 RMK AO2
KOBE 060735Z AUTO 00000KT 1/4SM FG VV002 16/16 A3011 RMK AO2
KOBE 060715Z AUTO 00000KT 1/4SM FG BKN001 17/17 A3011 RMK AO2
KOBE 060655Z AUTO 00000KT 1/4SM FG OVC001 17/17 A3011 RMK AO2
KOBE 060635Z AUTO 00000KT 1/4SM FG OVC001 17/17 A3012 RMK AO2
KOBE 060615Z AUTO 00000KT 1/4SM FG BKN001 17/17 A3012 RMK AO2
KOBE 060555Z AUTO 00000KT 1/4SM FG OVC001 17/17 A3011 RMK AO2
KOBE 060535Z AUTO 00000KT 1/4SM FG OVC001 18/18 A3012 RMK AO2
KOBE 060515Z AUTO 00000KT 1/4SM FG OVC001 18/18 A3013 RMK AO2
KOBE 060455Z AUTO 00000KT 1/4SM FG BKN001 BKN055 18/18 A3013 RMK AO2
KOBE 060435Z AUTO 00000KT 1/4SM FG BKN001 BKN055 18/18 A3013 RMK AO2
KOBE 060415Z AUTO 00000KT 1/4SM FG VV002 18/18 A3014 RMK AO2
KOBE 060355Z AUTO 00000KT 1/4SM FG VV002 18/18 A3014 RMK AO2
KOBE 060335Z AUTO 00000KT 3/4SM BR VV005 18/18 A3014 RMK AO2 VIS 1/4V3
KOBE 060315Z AUTO 00000KT 4SM BR FEW028 18/18 A3014 RMK AO2
KOBE 060255Z AUTO 00000KT 6SM BR SCT029 19/19 A3013 RMK AO2
KOBE 060235Z AUTO 05003KT 9SM CLR 19/19 A3013 RMK AO2
KOBE 060215Z AUTO 03003KT 10SM FEW060 19/19 A3013 RMK AO2
KOBE 060155Z AUTO 00000KT 10SM FEW050 FEW060 19/19 A3013 RMK AO2
KOBE 060135Z AUTO 05004KT 10SM BKN049 SCT060 19/19 A3013 RMK AO2
KOBE 060115Z AUTO 05003KT 10SM OVC050 20/19 A3013 RMK AO2
KOBE 060055Z AUTO 05004KT 10SM OVC050 20/19 A3012 RMK AO2
KOBE 060035Z AUTO 05004KT 10SM BKN050 20/19 A3012 RMK AO2
KOBE 060015Z AUTO 05004KT 10SM SCT049 20/19 A3012 RMK AO2
KOBE 052355Z AUTO 03005KT 10SM CLR 20/19 A3011 RMK AO2
KOBE 052335Z AUTO 05005KT 10SM SCT021 SCT041 21/20 A3011 RMK AO2
KOBE 052315Z AUTO VRB03KT 10SM OVC020 21/20 A3011 RMK AO2
KOBE 052255Z AUTO 07004KT 10SM BKN021 BKN028 21/20 A3011 RMK AO2
KOBE 052235Z AUTO 07005KT 10SM SCT025 SCT030 BKN037 22/20 A3010 RMK AO2
KOBE 052215Z AUTO 06005KT 10SM BKN036 BKN042 22/20 A3010 RMK AO2
KOBE 052155Z AUTO 07006KT 10SM OVC034 23/20 A3009 RMK AO2
KOBE 052135Z AUTO 04005KT 10SM SCT033 BKN044 23/20 A3009 RMK AO2
KOBE 052115Z AUTO 03007KT 10SM FEW025 SCT039 BKN044 24/20 A3009 RMK AO2
KOBE 052055Z AUTO VRB06G12KT 10SM FEW020 SCT025 BKN043 23/20 A3009 RMK AO2
KOBE 052035Z AUTO VRB05KT 10SM FEW023 BKN044 OVC060 24/21 A3009 RMK AO2
KOBE 052015Z AUTO 03008KT 10SM FEW039 BKN046 OVC065 24/21 A3009 RMK AO2